sensor_id;sensor_type;location;lat;lon;timestamp;P1;durP1;ratioP1;P2;durP2;ratioP2
29466;SDS011;60968;37.490;-122.288;2023-07-30T00:00:39;8.97;;;3.70;;
29466;SDS011;60968;37.490;-122.288;2023-07-30T00:03:40;7.63;;;3.47;;
29466;SDS011;60968;37.490;-122.288;2023-07-30T00:06:41;7.30;;;3.70;;
29466;SDS011;60968;37.490;-122.288;2023-07-30T00:09:42;8.37;;;3.77;;
29466;SDS011;60968;37.490;-122.288;2023-07-30T00:12:44;12.60;;;3.60;;
29466;SDS011;60968;37.490;-122.288;2023-07-30T00:15:45;12.23;;;3.60;;
29466;SDS011;60968;37.490;-122.288;2023-07-30T00:18:46;7.93;;;3.23;;
29466;SDS011;60968;37.490;-122.288;2023-07-30T00:21:47;7.10;;;3.20;;
29466;SDS011;60968;37.490;-122.288;2023-07-30T00:24:48;9.60;;;3.50;;
29466;SDS011;60968;37.490;-122.288;2023-07-30T00:27:49;8.43;;;3.50;;
29466;SDS011;60968;37.490;-122.288;2023-07-30T00:30:49;8.47;;;3.30;;
29466;SDS011;60968;37.490;-122.288;2023-07-30T00:33:50;4.13;;;2.63;;
29466;SDS011;60968;37.490;-122.288;2023-07-30T00:36:51;7.37;;;3.30;;
29466;SDS011;60968;37.490;-122.288;2023-07-30T00:39:52;6.73;;;3.73;;
29466;SDS011;60968;37.490;-122.288;2023-07-30T00:42:53;5.43;;;3.07;;
29466;SDS011;60968;37.490;-122.288;2023-07-30T00:45:54;5.53;;;3.30;;
29466;SDS011;60968;37.490;-122.288;2023-07-30T00:48:55;7.27;;;3.20;;
29466;SDS011;60968;37.490;-122.288;2023-07-30T00:51:56;7.07;;;3.60;;
29466;SDS011;60968;37.490;-122.288;2023-07-30T00:54:57;6.60;;;3.03;;
29466;SDS011;60968;37.490;-122.288;2023-07-30T00:57:59;8.30;;;3.27;;
29466;SDS011;60968;37.490;-122.288;2023-07-30T01:01:01;10.37;;;2.97;;
29466;SDS011;60968;37.490;-122.288;2023-07-30T01:04:02;9.30;;;3.30;;
29466;SDS011;60968;37.490;-122.288;2023-07-30T01:07:03;7.23;;;3.60;;
29466;SDS011;60968;37.490;-122.288;2023-07-30T01:10:05;5.10;;;3.27;;
29466;SDS011;60968;37.490;-122.288;2023-07-30T01:13:06;9.67;;;3.70;;
29466;SDS011;60968;37.490;-122.288;2023-07-30T01:16:10;9.03;;;3.70;;
29466;SDS011;60968;37.490;-122.288;2023-07-30T01:19:11;9.37;;;3.70;;
29466;SDS011;60968;37.490;-122.288;2023-07-30T01:22:12;6.17;;;3.10;;
29466;SDS011;60968;37.490;-122.288;2023-07-30T01:25:13;10.20;;;3.10;;
29466;SDS011;60968;37.490;-122.288;2023-07-30T01:28:15;8.00;;;3.10;;
29466;SDS011;60968;37.490;-122.288;2023-07-30T01:31:17;7.13;;;3.17;;
29466;SDS011;60968;37.490;-122.288;2023-07-30T01:34:19;8.37;;;2.80;;
29466;SDS011;60968;37.490;-122.288;2023-07-30T01:37:21;14.23;;;3.87;;
29466;SDS011;60968;37.490;-122.288;2023-07-30T01:40:22;11.70;;;3.20;;
29466;SDS011;60968;37.490;-122.288;2023-07-30T01:43:23;10.00;;;3.20;;
29466;SDS011;60968;37.490;-122.288;2023-07-30T01:46:24;5.67;;;2.63;;
29466;SDS011;60968;37.490;-122.288;2023-07-30T01:49:25;10.63;;;3.33;;
29466;SDS011;60968;37.490;-122.288;2023-07-30T01:52:26;11.57;;;3.60;;
29466;SDS011;60968;37.490;-122.288;2023-07-30T01:55:26;10.00;;;3.27;;
29466;SDS011;60968;37.490;-122.288;2023-07-30T01:58:27;9.97;;;3.93;;
29466;SDS011;60968;37.490;-122.288;2023-07-30T02:01:28;8.57;;;3.77;;
29466;SDS011;60968;37.490;-122.288;2023-07-30T02:04:29;11.27;;;3.53;;
29466;SDS011;60968;37.490;-122.288;2023-07-30T02:07:30;11.40;;;3.63;;
29466;SDS011;60968;37.490;-122.288;2023-07-30T02:10:30;9.47;;;3.20;;
29466;SDS011;60968;37.490;-122.288;2023-07-30T02:13:31;16.47;;;4.33;;
29466;SDS011;60968;37.490;-122.288;2023-07-30T02:16:32;9.20;;;3.10;;
29466;SDS011;60968;37.490;-122.288;2023-07-30T02:19:33;10.00;;;3.30;;
29466;SDS011;60968;37.490;-122.288;2023-07-30T02:22:34;9.73;;;3.90;;
29466;SDS011;60968;37.490;-122.288;2023-07-30T02:25:35;9.93;;;3.27;;
29466;SDS011;60968;37.490;-122.288;2023-07-30T02:28:35;11.87;;;3.40;;
29466;SDS011;60968;37.490;-122.288;2023-07-30T02:31:36;9.63;;;3.27;;
29466;SDS011;60968;37.490;-122.288;2023-07-30T02:34:37;8.97;;;2.70;;
29466;SDS011;60968;37.490;-122.288;2023-07-30T02:37:38;7.37;;;2.60;;
29466;SDS011;60968;37.490;-122.288;2023-07-30T02:40:39;9.97;;;2.70;;
29466;SDS011;60968;37.490;-122.288;2023-07-30T02:43:39;11.87;;;3.33;;
29466;SDS011;60968;37.490;-122.288;2023-07-30T02:46:40;8.20;;;3.00;;
29466;SDS011;60968;37.490;-122.288;2023-07-30T02:49:41;7.63;;;2.77;;
29466;SDS011;60968;37.490;-122.288;2023-07-30T02:52:42;10.90;;;2.70;;
29466;SDS011;60968;37.490;-122.288;2023-07-30T02:55:43;5.90;;;2.53;;
29466;SDS011;60968;37.490;-122.288;2023-07-30T02:58:44;9.37;;;2.17;;
29466;SDS011;60968;37.490;-122.288;2023-07-30T03:01:44;8.33;;;2.30;;
29466;SDS011;60968;37.490;-122.288;2023-07-30T03:04:45;8.57;;;3.00;;
29466;SDS011;60968;37.490;-122.288;2023-07-30T03:07:46;6.30;;;2.30;;
29466;SDS011;60968;37.490;-122.288;2023-07-30T03:10:47;8.07;;;2.30;;
29466;SDS011;60968;37.490;-122.288;2023-07-30T03:13:48;5.47;;;2.87;;
29466;SDS011;60968;37.490;-122.288;2023-07-30T03:16:49;10.40;;;3.03;;
29466;SDS011;60968;37.490;-122.288;2023-07-30T03:19:50;9.90;;;3.00;;
29466;SDS011;60968;37.490;-122.288;2023-07-30T03:22:51;7.07;;;2.53;;
29466;SDS011;60968;37.490;-122.288;2023-07-30T03:25:51;5.00;;;2.07;;
29466;SDS011;60968;37.490;-122.288;2023-07-30T03:28:52;7.57;;;1.70;;
29466;SDS011;60968;37.490;-122.288;2023-07-30T03:31:53;9.53;;;2.20;;
29466;SDS011;60968;37.490;-122.288;2023-07-30T03:34:54;5.73;;;1.87;;
29466;SDS011;60968;37.490;-122.288;2023-07-30T03:37:55;4.80;;;1.53;;
29466;SDS011;60968;37.490;-122.288;2023-07-30T03:40:55;6.97;;;2.23;;
29466;SDS011;60968;37.490;-122.288;2023-07-30T03:43:58;5.40;;;1.80;;
29466;SDS011;60968;37.490;-122.288;2023-07-30T03:46:59;5.00;;;1.60;;
29466;SDS011;60968;37.490;-122.288;2023-07-30T03:49:59;3.00;;;1.50;;
29466;SDS011;60968;37.490;-122.288;2023-07-30T03:53:00;5.27;;;1.50;;
29466;SDS011;60968;37.490;-122.288;2023-07-30T03:56:01;3.37;;;1.47;;
29466;SDS011;60968;37.490;-122.288;2023-07-30T03:59:02;3.73;;;1.53;;
29466;SDS011;60968;37.490;-122.288;2023-07-30T04:02:03;3.00;;;1.23;;
29466;SDS011;60968;37.490;-122.288;2023-07-30T04:05:04;4.87;;;1.60;;
29466;SDS011;60968;37.490;-122.288;2023-07-30T04:08:05;5.30;;;1.40;;
29466;SDS011;60968;37.490;-122.288;2023-07-30T04:11:06;4.00;;;1.60;;
29466;SDS011;60968;37.490;-122.288;2023-07-30T04:14:06;5.40;;;2.17;;
29466;SDS011;60968;37.490;-122.288;2023-07-30T04:17:07;3.77;;;1.50;;
29466;SDS011;60968;37.490;-122.288;2023-07-30T04:20:08;5.97;;;1.53;;
29466;SDS011;60968;37.490;-122.288;2023-07-30T04:23:10;5.97;;;2.20;;
29466;SDS011;60968;37.490;-122.288;2023-07-30T04:26:10;7.77;;;1.73;;
29466;SDS011;60968;37.490;-122.288;2023-07-30T04:29:11;7.30;;;1.87;;
29466;SDS011;60968;37.490;-122.288;2023-07-30T04:32:13;4.43;;;2.00;;
29466;SDS011;60968;37.490;-122.288;2023-07-30T04:35:14;3.13;;;1.80;;
29466;SDS011;60968;37.490;-122.288;2023-07-30T04:38:15;3.53;;;1.67;;
29466;SDS011;60968;37.490;-122.288;2023-07-30T04:41:16;5.80;;;1.60;;
29466;SDS011;60968;37.490;-122.288;2023-07-30T04:44:17;4.57;;;1.90;;
29466;SDS011;60968;37.490;-122.288;2023-07-30T04:47:18;4.30;;;1.73;;
29466;SDS011;60968;37.490;-122.288;2023-07-30T04:50:18;4.83;;;1.70;;
29466;SDS011;60968;37.490;-122.288;2023-07-30T04:53:19;8.30;;;1.70;;
29466;SDS011;60968;37.490;-122.288;2023-07-30T04:56:20;6.00;;;2.13;;
29466;SDS011;60968;37.490;-122.288;2023-07-30T04:59:21;3.60;;;1.53;;
29466;SDS011;60968;37.490;-122.288;2023-07-30T05:02:22;2.20;;;1.30;;
29466;SDS011;60968;37.490;-122.288;2023-07-30T05:05:23;1.87;;;1.37;;
29466;SDS011;60968;37.490;-122.288;2023-07-30T05:08:24;3.60;;;1.60;;
29466;SDS011;60968;37.490;-122.288;2023-07-30T05:11:24;3.63;;;1.60;;
29466;SDS011;60968;37.490;-122.288;2023-07-30T05:14:25;3.60;;;1.97;;
29466;SDS011;60968;37.490;-122.288;2023-07-30T05:17:26;2.87;;;1.50;;
29466;SDS011;60968;37.490;-122.288;2023-07-30T05:20:27;2.83;;;1.80;;
29466;SDS011;60968;37.490;-122.288;2023-07-30T05:23:28;2.73;;;1.70;;
29466;SDS011;60968;37.490;-122.288;2023-07-30T05:26:29;2.23;;;1.53;;
29466;SDS011;60968;37.490;-122.288;2023-07-30T05:29:29;3.00;;;1.50;;
29466;SDS011;60968;37.490;-122.288;2023-07-30T05:32:32;5.00;;;1.67;;
29466;SDS011;60968;37.490;-122.288;2023-07-30T05:35:33;2.67;;;1.67;;
29466;SDS011;60968;37.490;-122.288;2023-07-30T05:38:34;4.20;;;1.60;;
29466;SDS011;60968;37.490;-122.288;2023-07-30T05:41:34;3.73;;;1.90;;
29466;SDS011;60968;37.490;-122.288;2023-07-30T05:44:35;3.67;;;1.70;;
29466;SDS011;60968;37.490;-122.288;2023-07-30T05:47:36;4.63;;;1.80;;
29466;SDS011;60968;37.490;-122.288;2023-07-30T05:50:37;3.40;;;1.80;;
29466;SDS011;60968;37.490;-122.288;2023-07-30T05:53:38;4.30;;;1.70;;
29466;SDS011;60968;37.490;-122.288;2023-07-30T05:56:38;3.17;;;1.70;;
29466;SDS011;60968;37.490;-122.288;2023-07-30T05:59:39;4.07;;;1.93;;
29466;SDS011;60968;37.490;-122.288;2023-07-30T06:02:40;4.80;;;1.80;;
29466;SDS011;60968;37.490;-122.288;2023-07-30T06:05:41;7.60;;;1.97;;
29466;SDS011;60968;37.490;-122.288;2023-07-30T06:08:42;3.73;;;2.03;;
29466;SDS011;60968;37.490;-122.288;2023-07-30T06:11:43;4.40;;;2.13;;
29466;SDS011;60968;37.490;-122.288;2023-07-30T06:14:44;5.70;;;1.93;;
29466;SDS011;60968;37.490;-122.288;2023-07-30T06:17:45;5.10;;;2.53;;
29466;SDS011;60968;37.490;-122.288;2023-07-30T06:20:46;7.97;;;2.27;;
29466;SDS011;60968;37.490;-122.288;2023-07-30T06:23:47;7.97;;;2.33;;
29466;SDS011;60968;37.490;-122.288;2023-07-30T06:26:48;8.63;;;3.13;;
29466;SDS011;60968;37.490;-122.288;2023-07-30T06:29:48;9.83;;;2.73;;
29466;SDS011;60968;37.490;-122.288;2023-07-30T06:32:50;14.23;;;2.73;;
29466;SDS011;60968;37.490;-122.288;2023-07-30T06:35:50;9.67;;;2.90;;
29466;SDS011;60968;37.490;-122.288;2023-07-30T06:38:51;6.63;;;2.63;;
29466;SDS011;60968;37.490;-122.288;2023-07-30T06:41:52;7.30;;;2.53;;
29466;SDS011;60968;37.490;-122.288;2023-07-30T06:44:53;6.67;;;2.40;;
29466;SDS011;60968;37.490;-122.288;2023-07-30T06:47:54;9.03;;;2.93;;
29466;SDS011;60968;37.490;-122.288;2023-07-30T06:50:54;8.03;;;2.70;;
29466;SDS011;60968;37.490;-122.288;2023-07-30T06:53:55;9.37;;;3.10;;
29466;SDS011;60968;37.490;-122.288;2023-07-30T06:56:56;8.03;;;2.60;;
29466;SDS011;60968;37.490;-122.288;2023-07-30T06:59:57;5.87;;;2.53;;
29466;SDS011;60968;37.490;-122.288;2023-07-30T07:02:58;6.57;;;2.60;;
29466;SDS011;60968;37.490;-122.288;2023-07-30T07:05:59;7.77;;;2.70;;
29466;SDS011;60968;37.490;-122.288;2023-07-30T07:09:00;7.97;;;2.90;;
29466;SDS011;60968;37.490;-122.288;2023-07-30T07:12:00;5.20;;;2.40;;
29466;SDS011;60968;37.490;-122.288;2023-07-30T07:15:02;6.80;;;3.03;;
29466;SDS011;60968;37.490;-122.288;2023-07-30T07:18:03;7.43;;;2.60;;
29466;SDS011;60968;37.490;-122.288;2023-07-30T07:21:03;7.83;;;2.63;;
29466;SDS011;60968;37.490;-122.288;2023-07-30T07:24:04;7.67;;;2.63;;
29466;SDS011;60968;37.490;-122.288;2023-07-30T07:27:05;7.87;;;2.93;;
29466;SDS011;60968;37.490;-122.288;2023-07-30T07:30:06;7.70;;;2.97;;
29466;SDS011;60968;37.490;-122.288;2023-07-30T07:33:08;6.77;;;2.90;;
29466;SDS011;60968;37.490;-122.288;2023-07-30T07:36:08;16.70;;;4.53;;
29466;SDS011;60968;37.490;-122.288;2023-07-30T07:39:09;13.53;;;5.00;;
29466;SDS011;60968;37.490;-122.288;2023-07-30T07:42:10;14.13;;;5.27;;
29466;SDS011;60968;37.490;-122.288;2023-07-30T07:45:11;16.00;;;5.70;;
29466;SDS011;60968;37.490;-122.288;2023-07-30T07:48:12;13.47;;;5.23;;
29466;SDS011;60968;37.490;-122.288;2023-07-30T07:51:13;16.37;;;6.03;;
29466;SDS011;60968;37.490;-122.288;2023-07-30T07:54:14;22.90;;;5.23;;
29466;SDS011;60968;37.490;-122.288;2023-07-30T07:57:15;16.40;;;5.43;;
29466;SDS011;60968;37.490;-122.288;2023-07-30T08:00:16;17.67;;;4.87;;
29466;SDS011;60968;37.490;-122.288;2023-07-30T08:03:17;17.43;;;5.90;;
29466;SDS011;60968;37.490;-122.288;2023-07-30T08:06:18;18.90;;;5.90;;
29466;SDS011;60968;37.490;-122.288;2023-07-30T08:09:19;14.77;;;4.47;;
29466;SDS011;60968;37.490;-122.288;2023-07-30T08:12:20;15.37;;;5.53;;
29466;SDS011;60968;37.490;-122.288;2023-07-30T08:15:21;18.30;;;5.50;;
29466;SDS011;60968;37.490;-122.288;2023-07-30T08:18:22;16.63;;;5.07;;
29466;SDS011;60968;37.490;-122.288;2023-07-30T08:21:23;16.70;;;5.43;;
29466;SDS011;60968;37.490;-122.288;2023-07-30T08:24:24;21.23;;;6.10;;
29466;SDS011;60968;37.490;-122.288;2023-07-30T08:27:25;23.20;;;6.20;;
29466;SDS011;60968;37.490;-122.288;2023-07-30T08:30:26;18.90;;;5.87;;
29466;SDS011;60968;37.490;-122.288;2023-07-30T08:33:26;16.37;;;5.37;;
29466;SDS011;60968;37.490;-122.288;2023-07-30T08:36:27;16.90;;;5.83;;
29466;SDS011;60968;37.490;-122.288;2023-07-30T08:39:28;14.70;;;4.83;;
29466;SDS011;60968;37.490;-122.288;2023-07-30T08:42:29;11.10;;;4.30;;
29466;SDS011;60968;37.490;-122.288;2023-07-30T08:45:30;9.57;;;4.27;;
29466;SDS011;60968;37.490;-122.288;2023-07-30T08:48:31;12.30;;;4.07;;
29466;SDS011;60968;37.490;-122.288;2023-07-30T08:51:32;13.47;;;4.03;;
29466;SDS011;60968;37.490;-122.288;2023-07-30T08:54:37;9.63;;;3.37;;
29466;SDS011;60968;37.490;-122.288;2023-07-30T08:57:39;14.67;;;3.80;;
29466;SDS011;60968;37.490;-122.288;2023-07-30T09:00:43;12.37;;;3.80;;
29466;SDS011;60968;37.490;-122.288;2023-07-30T09:03:45;13.10;;;4.17;;
29466;SDS011;60968;37.490;-122.288;2023-07-30T09:06:50;14.83;;;4.47;;
29466;SDS011;60968;37.490;-122.288;2023-07-30T09:09:50;15.30;;;4.37;;
29466;SDS011;60968;37.490;-122.288;2023-07-30T09:12:52;13.03;;;4.67;;
29466;SDS011;60968;37.490;-122.288;2023-07-30T09:15:54;15.83;;;4.83;;
29466;SDS011;60968;37.490;-122.288;2023-07-30T09:18:55;11.17;;;4.40;;
29466;SDS011;60968;37.490;-122.288;2023-07-30T09:21:56;10.07;;;4.50;;
29466;SDS011;60968;37.490;-122.288;2023-07-30T09:24:57;14.30;;;4.63;;
29466;SDS011;60968;37.490;-122.288;2023-07-30T09:27:58;12.97;;;4.90;;
29466;SDS011;60968;37.490;-122.288;2023-07-30T09:31:02;14.20;;;4.63;;
29466;SDS011;60968;37.490;-122.288;2023-07-30T09:34:04;14.20;;;4.40;;
29466;SDS011;60968;37.490;-122.288;2023-07-30T09:37:05;18.33;;;5.30;;
29466;SDS011;60968;37.490;-122.288;2023-07-30T09:40:10;12.97;;;4.50;;
29466;SDS011;60968;37.490;-122.288;2023-07-30T09:43:12;17.47;;;6.03;;
29466;SDS011;60968;37.490;-122.288;2023-07-30T09:46:13;17.50;;;5.30;;
29466;SDS011;60968;37.490;-122.288;2023-07-30T09:49:17;22.33;;;6.03;;
29466;SDS011;60968;37.490;-122.288;2023-07-30T09:52:19;21.67;;;5.53;;
29466;SDS011;60968;37.490;-122.288;2023-07-30T09:55:21;18.77;;;5.97;;
29466;SDS011;60968;37.490;-122.288;2023-07-30T09:58:22;20.30;;;6.10;;
29466;SDS011;60968;37.490;-122.288;2023-07-30T10:01:23;25.83;;;5.97;;
29466;SDS011;60968;37.490;-122.288;2023-07-30T10:04:26;21.63;;;6.13;;
29466;SDS011;60968;37.490;-122.288;2023-07-30T10:07:29;14.20;;;5.40;;
29466;SDS011;60968;37.490;-122.288;2023-07-30T10:10:30;24.07;;;5.53;;
29466;SDS011;60968;37.490;-122.288;2023-07-30T10:13:32;21.70;;;6.00;;
29466;SDS011;60968;37.490;-122.288;2023-07-30T10:16:33;19.07;;;5.37;;
29466;SDS011;60968;37.490;-122.288;2023-07-30T10:19:34;16.53;;;6.03;;
29466;SDS011;60968;37.490;-122.288;2023-07-30T10:22:35;17.20;;;5.07;;
29466;SDS011;60968;37.490;-122.288;2023-07-30T10:25:43;23.00;;;5.77;;
29466;SDS011;60968;37.490;-122.288;2023-07-30T10:28:48;12.50;;;4.97;;
29466;SDS011;60968;37.490;-122.288;2023-07-30T10:31:53;15.77;;;4.77;;
29466;SDS011;60968;37.490;-122.288;2023-07-30T10:34:55;21.30;;;5.60;;
29466;SDS011;60968;37.490;-122.288;2023-07-30T10:37:55;13.90;;;4.93;;
29466;SDS011;60968;37.490;-122.288;2023-07-30T10:41:06;26.83;;;5.83;;
29466;SDS011;60968;37.490;-122.288;2023-07-30T10:44:16;15.73;;;5.17;;
29466;SDS011;60968;37.490;-122.288;2023-07-30T10:47:19;17.70;;;5.10;;
29466;SDS011;60968;37.490;-122.288;2023-07-30T10:50:22;14.87;;;6.00;;
29466;SDS011;60968;37.490;-122.288;2023-07-30T10:53:22;18.57;;;5.17;;
29466;SDS011;60968;37.490;-122.288;2023-07-30T10:56:23;16.17;;;5.63;;
29466;SDS011;60968;37.490;-122.288;2023-07-30T10:59:25;18.10;;;6.23;;
29466;SDS011;60968;37.490;-122.288;2023-07-30T11:02:27;15.93;;;5.57;;
29466;SDS011;60968;37.490;-122.288;2023-07-30T11:05:29;10.90;;;5.40;;
29466;SDS011;60968;37.490;-122.288;2023-07-30T11:11:40;21.43;;;6.73;;
29466;SDS011;60968;37.490;-122.288;2023-07-30T11:14:41;18.83;;;6.13;;
29466;SDS011;60968;37.490;-122.288;2023-07-30T11:17:42;21.57;;;6.20;;
29466;SDS011;60968;37.490;-122.288;2023-07-30T11:20:43;21.67;;;5.63;;
29466;SDS011;60968;37.490;-122.288;2023-07-30T11:23:44;18.57;;;6.50;;
29466;SDS011;60968;37.490;-122.288;2023-07-30T11:26:56;23.30;;;6.37;;
29466;SDS011;60968;37.490;-122.288;2023-07-30T11:29:58;23.67;;;6.17;;
29466;SDS011;60968;37.490;-122.288;2023-07-30T11:32:58;19.73;;;6.20;;
29466;SDS011;60968;37.490;-122.288;2023-07-30T11:36:00;17.30;;;5.67;;
29466;SDS011;60968;37.490;-122.288;2023-07-30T11:39:02;15.90;;;5.57;;
29466;SDS011;60968;37.490;-122.288;2023-07-30T11:42:04;14.87;;;6.07;;
29466;SDS011;60968;37.490;-122.288;2023-07-30T11:45:17;19.37;;;6.20;;
29466;SDS011;60968;37.490;-122.288;2023-07-30T11:48:19;23.10;;;5.97;;
29466;SDS011;60968;37.490;-122.288;2023-07-30T11:51:24;18.53;;;6.17;;
29466;SDS011;60968;37.490;-122.288;2023-07-30T11:54:26;17.10;;;5.63;;
29466;SDS011;60968;37.490;-122.288;2023-07-30T11:57:34;17.67;;;5.73;;
29466;SDS011;60968;37.490;-122.288;2023-07-30T12:00:39;16.37;;;5.70;;
29466;SDS011;60968;37.490;-122.288;2023-07-30T12:03:41;18.50;;;6.87;;
29466;SDS011;60968;37.490;-122.288;2023-07-30T12:06:45;17.33;;;6.77;;
29466;SDS011;60968;37.490;-122.288;2023-07-30T12:09:50;19.97;;;6.77;;
29466;SDS011;60968;37.490;-122.288;2023-07-30T12:12:51;30.17;;;8.10;;
29466;SDS011;60968;37.490;-122.288;2023-07-30T12:15:53;26.57;;;7.67;;
29466;SDS011;60968;37.490;-122.288;2023-07-30T12:18:54;26.17;;;8.57;;
29466;SDS011;60968;37.490;-122.288;2023-07-30T12:21:55;21.80;;;8.30;;
29466;SDS011;60968;37.490;-122.288;2023-07-30T12:24:56;15.87;;;7.33;;
29466;SDS011;60968;37.490;-122.288;2023-07-30T12:27:57;20.50;;;7.90;;
29466;SDS011;60968;37.490;-122.288;2023-07-30T12:30:58;28.80;;;8.33;;
29466;SDS011;60968;37.490;-122.288;2023-07-30T12:33:58;22.87;;;7.93;;
29466;SDS011;60968;37.490;-122.288;2023-07-30T12:36:59;22.47;;;8.80;;
29466;SDS011;60968;37.490;-122.288;2023-07-30T12:40:00;24.23;;;8.40;;
29466;SDS011;60968;37.490;-122.288;2023-07-30T12:43:02;18.80;;;8.47;;
29466;SDS011;60968;37.490;-122.288;2023-07-30T12:46:03;25.53;;;8.30;;
29466;SDS011;60968;37.490;-122.288;2023-07-30T12:49:04;30.47;;;8.83;;
29466;SDS011;60968;37.490;-122.288;2023-07-30T12:52:05;26.87;;;8.30;;
29466;SDS011;60968;37.490;-122.288;2023-07-30T12:55:06;22.60;;;7.80;;
29466;SDS011;60968;37.490;-122.288;2023-07-30T12:58:07;21.53;;;8.07;;
29466;SDS011;60968;37.490;-122.288;2023-07-30T13:01:08;24.30;;;7.83;;
29466;SDS011;60968;37.490;-122.288;2023-07-30T13:04:09;19.27;;;7.50;;
29466;SDS011;60968;37.490;-122.288;2023-07-30T13:07:09;26.17;;;8.40;;
29466;SDS011;60968;37.490;-122.288;2023-07-30T13:10:10;25.13;;;7.70;;
29466;SDS011;60968;37.490;-122.288;2023-07-30T13:13:11;24.87;;;8.20;;
29466;SDS011;60968;37.490;-122.288;2023-07-30T13:16:12;21.57;;;7.57;;
29466;SDS011;60968;37.490;-122.288;2023-07-30T13:19:13;21.17;;;7.20;;
29466;SDS011;60968;37.490;-122.288;2023-07-30T13:22:14;25.67;;;6.90;;
29466;SDS011;60968;37.490;-122.288;2023-07-30T13:25:15;23.07;;;7.20;;
29466;SDS011;60968;37.490;-122.288;2023-07-30T13:28:15;20.53;;;6.80;;
29466;SDS011;60968;37.490;-122.288;2023-07-30T13:31:16;16.50;;;6.53;;
29466;SDS011;60968;37.490;-122.288;2023-07-30T13:34:17;17.63;;;6.50;;
29466;SDS011;60968;37.490;-122.288;2023-07-30T13:37:21;16.20;;;6.00;;
29466;SDS011;60968;37.490;-122.288;2023-07-30T13:40:22;20.57;;;6.77;;
29466;SDS011;60968;37.490;-122.288;2023-07-30T13:43:23;20.53;;;5.63;;
29466;SDS011;60968;37.490;-122.288;2023-07-30T13:46:24;19.80;;;5.90;;
29466;SDS011;60968;37.490;-122.288;2023-07-30T13:49:24;17.60;;;6.13;;
29466;SDS011;60968;37.490;-122.288;2023-07-30T13:52:25;17.47;;;6.07;;
29466;SDS011;60968;37.490;-122.288;2023-07-30T13:55:26;17.30;;;6.20;;
29466;SDS011;60968;37.490;-122.288;2023-07-30T13:58:28;15.97;;;5.70;;
29466;SDS011;60968;37.490;-122.288;2023-07-30T14:01:29;18.33;;;4.97;;
29466;SDS011;60968;37.490;-122.288;2023-07-30T14:04:30;17.30;;;6.10;;
29466;SDS011;60968;37.490;-122.288;2023-07-30T14:07:31;14.57;;;5.60;;
29466;SDS011;60968;37.490;-122.288;2023-07-30T14:10:31;14.53;;;5.37;;
29466;SDS011;60968;37.490;-122.288;2023-07-30T14:13:32;16.53;;;5.67;;
29466;SDS011;60968;37.490;-122.288;2023-07-30T14:16:33;15.73;;;5.90;;
29466;SDS011;60968;37.490;-122.288;2023-07-30T14:19:34;13.97;;;5.20;;
29466;SDS011;60968;37.490;-122.288;2023-07-30T14:22:35;15.40;;;5.67;;
29466;SDS011;60968;37.490;-122.288;2023-07-30T14:25:36;19.67;;;5.53;;
29466;SDS011;60968;37.490;-122.288;2023-07-30T14:28:37;15.50;;;5.83;;
29466;SDS011;60968;37.490;-122.288;2023-07-30T14:31:38;12.67;;;4.67;;
29466;SDS011;60968;37.490;-122.288;2023-07-30T14:34:38;9.30;;;4.70;;
29466;SDS011;60968;37.490;-122.288;2023-07-30T14:37:39;14.63;;;4.80;;
29466;SDS011;60968;37.490;-122.288;2023-07-30T14:40:42;11.83;;;4.37;;
29466;SDS011;60968;37.490;-122.288;2023-07-30T14:43:43;12.47;;;5.10;;
29466;SDS011;60968;37.490;-122.288;2023-07-30T14:46:44;11.63;;;4.70;;
29466;SDS011;60968;37.490;-122.288;2023-07-30T14:49:45;12.67;;;5.10;;
29466;SDS011;60968;37.490;-122.288;2023-07-30T14:52:45;12.43;;;4.90;;
29466;SDS011;60968;37.490;-122.288;2023-07-30T14:55:49;13.93;;;5.67;;
29466;SDS011;60968;37.490;-122.288;2023-07-30T14:58:49;10.47;;;5.10;;
29466;SDS011;60968;37.490;-122.288;2023-07-30T15:01:50;10.93;;;5.53;;
29466;SDS011;60968;37.490;-122.288;2023-07-30T15:04:51;21.23;;;5.67;;
29466;SDS011;60968;37.490;-122.288;2023-07-30T15:07:52;12.90;;;5.30;;
29466;SDS011;60968;37.490;-122.288;2023-07-30T15:10:53;10.47;;;4.90;;
29466;SDS011;60968;37.490;-122.288;2023-07-30T15:13:54;12.47;;;5.20;;
29466;SDS011;60968;37.490;-122.288;2023-07-30T15:16:55;12.87;;;5.00;;
29466;SDS011;60968;37.490;-122.288;2023-07-30T15:19:56;12.33;;;5.43;;
29466;SDS011;60968;37.490;-122.288;2023-07-30T15:22:57;12.20;;;4.97;;
29466;SDS011;60968;37.490;-122.288;2023-07-30T15:25:57;9.43;;;5.17;;
29466;SDS011;60968;37.490;-122.288;2023-07-30T15:28:58;15.27;;;5.17;;
29466;SDS011;60968;37.490;-122.288;2023-07-30T15:31:59;13.90;;;4.97;;
29466;SDS011;60968;37.490;-122.288;2023-07-30T15:35:02;13.20;;;4.87;;
29466;SDS011;60968;37.490;-122.288;2023-07-30T15:38:06;11.03;;;4.20;;
29466;SDS011;60968;37.490;-122.288;2023-07-30T15:41:07;14.00;;;5.07;;
29466;SDS011;60968;37.490;-122.288;2023-07-30T15:44:09;10.53;;;5.03;;
29466;SDS011;60968;37.490;-122.288;2023-07-30T15:47:10;8.53;;;4.87;;
29466;SDS011;60968;37.490;-122.288;2023-07-30T15:50:11;11.27;;;4.93;;
29466;SDS011;60968;37.490;-122.288;2023-07-30T15:53:12;11.90;;;4.60;;
29466;SDS011;60968;37.490;-122.288;2023-07-30T15:56:13;11.63;;;4.53;;
29466;SDS011;60968;37.490;-122.288;2023-07-30T15:59:14;10.67;;;4.63;;
29466;SDS011;60968;37.490;-122.288;2023-07-30T16:02:15;11.50;;;4.70;;
29466;SDS011;60968;37.490;-122.288;2023-07-30T16:05:16;11.73;;;4.93;;
29466;SDS011;60968;37.490;-122.288;2023-07-30T16:08:17;11.57;;;4.50;;
29466;SDS011;60968;37.490;-122.288;2023-07-30T16:11:19;10.87;;;4.33;;
29466;SDS011;60968;37.490;-122.288;2023-07-30T16:14:20;8.87;;;4.07;;
29466;SDS011;60968;37.490;-122.288;2023-07-30T16:17:21;9.20;;;4.30;;
29466;SDS011;60968;37.490;-122.288;2023-07-30T16:20:22;10.90;;;4.40;;
29466;SDS011;60968;37.490;-122.288;2023-07-30T16:23:23;10.60;;;4.07;;
29466;SDS011;60968;37.490;-122.288;2023-07-30T16:26:26;10.37;;;4.07;;
29466;SDS011;60968;37.490;-122.288;2023-07-30T16:29:26;10.90;;;3.30;;
29466;SDS011;60968;37.490;-122.288;2023-07-30T16:32:27;9.67;;;3.83;;
29466;SDS011;60968;37.490;-122.288;2023-07-30T16:35:28;8.37;;;3.77;;
29466;SDS011;60968;37.490;-122.288;2023-07-30T16:38:29;10.00;;;3.83;;
29466;SDS011;60968;37.490;-122.288;2023-07-30T16:41:30;7.20;;;3.83;;
29466;SDS011;60968;37.490;-122.288;2023-07-30T16:44:31;9.10;;;3.57;;
29466;SDS011;60968;37.490;-122.288;2023-07-30T16:47:32;9.30;;;4.17;;
29466;SDS011;60968;37.490;-122.288;2023-07-30T16:50:33;10.60;;;4.37;;
29466;SDS011;60968;37.490;-122.288;2023-07-30T16:53:34;9.00;;;3.63;;
29466;SDS011;60968;37.490;-122.288;2023-07-30T16:56:35;9.80;;;4.20;;
29466;SDS011;60968;37.490;-122.288;2023-07-30T16:59:36;8.10;;;3.93;;
29466;SDS011;60968;37.490;-122.288;2023-07-30T17:02:37;8.80;;;3.70;;
29466;SDS011;60968;37.490;-122.288;2023-07-30T17:05:38;11.13;;;4.10;;
29466;SDS011;60968;37.490;-122.288;2023-07-30T17:08:39;7.47;;;3.60;;
29466;SDS011;60968;37.490;-122.288;2023-07-30T17:11:40;10.10;;;4.30;;
29466;SDS011;60968;37.490;-122.288;2023-07-30T17:14:41;7.85;;;4.18;;
29466;SDS011;60968;37.490;-122.288;2023-07-30T17:17:42;7.13;;;4.05;;